sensor_id;sensor_type;location;lat;lon;timestamp;temperature;humidity
40151;DHT22;25866;52.420;10.640;2023-05-16T00:01:09;10.70;99.90
40151;DHT22;25866;52.420;10.640;2023-05-16T00:03:35;10.60;99.90
40151;DHT22;25866;52.420;10.640;2023-05-16T00:06:04;10.60;99.90
40151;DHT22;25866;52.420;10.640;2023-05-16T00:08:40;10.60;99.90
40151;DHT22;25866;52.420;10.640;2023-05-16T00:11:05;10.60;99.90
40151;DHT22;25866;52.420;10.640;2023-05-16T00:13:31;10.50;99.90
40151;DHT22;25866;52.420;10.640;2023-05-16T00:15:57;10.60;99.90
40151;DHT22;25866;52.420;10.640;2023-05-16T00:18:27;10.60;99.90
40151;DHT22;25866;52.420;10.640;2023-05-16T00:20:53;10.50;99.90
40151;DHT22;25866;52.420;10.640;2023-05-16T00:23:19;10.60;99.90
40151;DHT22;25866;52.420;10.640;2023-05-16T00:25:46;10.60;99.90
40151;DHT22;25866;52.420;10.640;2023-05-16T00:28:16;10.60;99.90
40151;DHT22;25866;52.420;10.640;2023-05-16T00:30:41;10.60;99.90
40151;DHT22;25866;52.420;10.640;2023-05-16T00:33:07;10.60;99.90
40151;DHT22;25866;52.420;10.640;2023-05-16T00:35:33;10.60;99.90
40151;DHT22;25866;52.420;10.640;2023-05-16T00:38:05;10.60;99.90
40151;DHT22;25866;52.420;10.640;2023-05-16T00:40:31;10.60;99.90
40151;DHT22;25866;52.420;10.640;2023-05-16T00:42:57;10.70;99.90
40151;DHT22;25866;52.420;10.640;2023-05-16T00:45:23;10.70;99.90
40151;DHT22;25866;52.420;10.640;2023-05-16T00:47:50;10.60;99.90
40151;DHT22;25866;52.420;10.640;2023-05-16T00:50:17;10.70;99.90
40151;DHT22;25866;52.420;10.640;2023-05-16T00:52:42;10.70;99.90
40151;DHT22;25866;52.420;10.640;2023-05-16T00:55:08;10.70;99.90
40151;DHT22;25866;52.420;10.640;2023-05-16T00:57:37;10.70;99.90
40151;DHT22;25866;52.420;10.640;2023-05-16T01:00:05;10.70;99.90
40151;DHT22;25866;52.420;10.640;2023-05-16T01:02:32;10.70;99.90
40151;DHT22;25866;52.420;10.640;2023-05-16T01:04:59;10.70;99.90
40151;DHT22;25866;52.420;10.640;2023-05-16T01:07:25;10.70;99.90
40151;DHT22;25866;52.420;10.640;2023-05-16T01:09:51;10.80;99.90
40151;DHT22;25866;52.420;10.640;2023-05-16T01:12:22;10.80;99.90
40151;DHT22;25866;52.420;10.640;2023-05-16T01:14:58;10.80;99.90
40151;DHT22;25866;52.420;10.640;2023-05-16T01:20:41;11.00;99.90
40151;DHT22;25866;52.420;10.640;2023-05-16T01:28:40;11.00;99.90
40151;DHT22;25866;52.420;10.640;2023-05-16T01:31:08;10.90;99.90
40151;DHT22;25866;52.420;10.640;2023-05-16T01:33:33;10.90;99.90
40151;DHT22;25866;52.420;10.640;2023-05-16T01:36:33;10.90;99.90
40151;DHT22;25866;52.420;10.640;2023-05-16T01:44:40;11.00;99.90
40151;DHT22;25866;52.420;10.640;2023-05-16T01:47:11;10.90;99.90
40151;DHT22;25866;52.420;10.640;2023-05-16T01:49:49;10.90;99.90
40151;DHT22;25866;52.420;10.640;2023-05-16T01:52:21;10.90;99.90
40151;DHT22;25866;52.420;10.640;2023-05-16T01:54:52;10.90;99.90
40151;DHT22;25866;52.420;10.640;2023-05-16T01:57:22;10.90;99.90
40151;DHT22;25866;52.420;10.640;2023-05-16T01:59:49;10.80;99.90
40151;DHT22;25866;52.420;10.640;2023-05-16T02:02:17;10.70;99.90
40151;DHT22;25866;52.420;10.640;2023-05-16T02:04:43;10.70;99.90
40151;DHT22;25866;52.420;10.640;2023-05-16T02:07:09;10.70;99.90
40151;DHT22;25866;52.420;10.640;2023-05-16T02:09:35;10.70;99.90
40151;DHT22;25866;52.420;10.640;2023-05-16T02:12:01;10.60;99.90
40151;DHT22;25866;52.420;10.640;2023-05-16T02:14:28;10.60;99.90
40151;DHT22;25866;52.420;10.640;2023-05-16T02:16:54;10.70;99.90
40151;DHT22;25866;52.420;10.640;2023-05-16T02:19:20;10.60;99.90
40151;DHT22;25866;52.420;10.640;2023-05-16T02:21:45;10.70;99.90
40151;DHT22;25866;52.420;10.640;2023-05-16T02:24:11;10.60;99.90
40151;DHT22;25866;52.420;10.640;2023-05-16T02:26:37;10.70;99.90
40151;DHT22;25866;52.420;10.640;2023-05-16T02:29:02;10.70;99.90
40151;DHT22;25866;52.420;10.640;2023-05-16T02:31:32;10.70;99.90
40151;DHT22;25866;52.420;10.640;2023-05-16T02:33:59;10.70;99.90
40151;DHT22;25866;52.420;10.640;2023-05-16T02:36:26;10.70;99.90
40151;DHT22;25866;52.420;10.640;2023-05-16T02:38:52;10.80;99.90
40151;DHT22;25866;52.420;10.640;2023-05-16T02:41:18;10.70;99.90
40151;DHT22;25866;52.420;10.640;2023-05-16T02:43:47;10.70;99.90
40151;DHT22;25866;52.420;10.640;2023-05-16T02:46:28;10.70;99.90
40151;DHT22;25866;52.420;10.640;2023-05-16T02:48:57;10.70;99.90
40151;DHT22;25866;52.420;10.640;2023-05-16T02:51:25;10.80;99.90
40151;DHT22;25866;52.420;10.640;2023-05-16T02:53:51;10.80;99.90
40151;DHT22;25866;52.420;10.640;2023-05-16T02:56:18;10.80;99.90
40151;DHT22;25866;52.420;10.640;2023-05-16T02:58:46;10.80;99.90
40151;DHT22;25866;52.420;10.640;2023-05-16T03:01:13;10.80;99.90
40151;DHT22;25866;52.420;10.640;2023-05-16T03:03:40;10.80;99.90
40151;DHT22;25866;52.420;10.640;2023-05-16T03:06:06;10.90;99.90
40151;DHT22;25866;52.420;10.640;2023-05-16T03:08:33;10.80;99.90
40151;DHT22;25866;52.420;10.640;2023-05-16T03:11:00;10.90;99.90
40151;DHT22;25866;52.420;10.640;2023-05-16T03:13:25;10.90;99.90
40151;DHT22;25866;52.420;10.640;2023-05-16T03:15:52;10.90;99.90
40151;DHT22;25866;52.420;10.640;2023-05-16T03:18:18;10.90;99.90
40151;DHT22;25866;52.420;10.640;2023-05-16T03:20:44;10.90;99.90
40151;DHT22;25866;52.420;10.640;2023-05-16T03:23:09;10.90;99.90
40151;DHT22;25866;52.420;10.640;2023-05-16T03:25:41;10.90;99.90
40151;DHT22;25866;52.420;10.640;2023-05-16T03:28:07;10.90;99.90
40151;DHT22;25866;52.420;10.640;2023-05-16T03:30:34;10.90;99.90
40151;DHT22;25866;52.420;10.640;2023-05-16T03:32:59;10.90;99.90
40151;DHT22;25866;52.420;10.640;2023-05-16T03:35:27;10.90;99.90
40151;DHT22;25866;52.420;10.640;2023-05-16T03:37:53;10.90;99.90
40151;DHT22;25866;52.420;10.640;2023-05-16T03:40:19;10.90;99.90
40151;DHT22;25866;52.420;10.640;2023-05-16T03:42:45;10.90;99.90
40151;DHT22;25866;52.420;10.640;2023-05-16T03:45:11;10.90;99.90
40151;DHT22;25866;52.420;10.640;2023-05-16T03:47:37;11.00;99.90
40151;DHT22;25866;52.420;10.640;2023-05-16T03:50:04;11.00;99.90
40151;DHT22;25866;52.420;10.640;2023-05-16T03:52:30;11.00;99.90
40151;DHT22;25866;52.420;10.640;2023-05-16T03:54:55;10.90;99.90
40151;DHT22;25866;52.420;10.640;2023-05-16T03:57:25;11.00;99.90
40151;DHT22;25866;52.420;10.640;2023-05-16T03:59:51;11.00;99.90
40151;DHT22;25866;52.420;10.640;2023-05-16T04:02:16;10.90;99.90
40151;DHT22;25866;52.420;10.640;2023-05-16T04:04:42;10.90;99.90
40151;DHT22;25866;52.420;10.640;2023-05-16T04:07:13;10.90;99.90
40151;DHT22;25866;52.420;10.640;2023-05-16T04:09:39;10.90;99.90
40151;DHT22;25866;52.420;10.640;2023-05-16T04:12:05;10.90;99.90
40151;DHT22;25866;52.420;10.640;2023-05-16T04:14:31;10.90;99.90
40151;DHT22;25866;52.420;10.640;2023-05-16T04:16:57;10.90;99.90
40151;DHT22;25866;52.420;10.640;2023-05-16T04:19:22;10.90;99.90
40151;DHT22;25866;52.420;10.640;2023-05-16T04:21:48;10.90;99.90
40151;DHT22;25866;52.420;10.640;2023-05-16T04:24:14;10.90;99.90
40151;DHT22;25866;52.420;10.640;2023-05-16T04:26:47;10.90;99.90
40151;DHT22;25866;52.420;10.640;2023-05-16T04:29:12;10.80;99.90
40151;DHT22;25866;52.420;10.640;2023-05-16T04:31:39;10.80;99.90
40151;DHT22;25866;52.420;10.640;2023-05-16T04:34:04;10.70;99.90
40151;DHT22;25866;52.420;10.640;2023-05-16T04:36:36;10.70;99.90
40151;DHT22;25866;52.420;10.640;2023-05-16T04:39:03;10.60;99.90
40151;DHT22;25866;52.420;10.640;2023-05-16T04:41:28;10.60;99.90
40151;DHT22;25866;52.420;10.640;2023-05-16T04:43:54;10.60;99.90
40151;DHT22;25866;52.420;10.640;2023-05-16T04:46:20;10.50;99.90
40151;DHT22;25866;52.420;10.640;2023-05-16T04:48:46;10.50;99.90
40151;DHT22;25866;52.420;10.640;2023-05-16T04:51:12;10.60;99.90
40151;DHT22;25866;52.420;10.640;2023-05-16T04:53:37;10.60;99.90
40151;DHT22;25866;52.420;10.640;2023-05-16T04:56:03;10.70;99.90
40151;DHT22;25866;52.420;10.640;2023-05-16T04:58:31;10.70;99.90
40151;DHT22;25866;52.420;10.640;2023-05-16T05:00:57;10.80;99.90
40151;DHT22;25866;52.420;10.640;2023-05-16T05:03:22;10.90;99.90
40151;DHT22;25866;52.420;10.640;2023-05-16T05:05:48;10.90;99.90
40151;DHT22;25866;52.420;10.640;2023-05-16T05:08:14;11.00;99.90
40151;DHT22;25866;52.420;10.640;2023-05-16T05:10:41;11.00;99.90
40151;DHT22;25866;52.420;10.640;2023-05-16T05:13:06;11.10;99.90
40151;DHT22;25866;52.420;10.640;2023-05-16T05:15:32;11.00;99.90
40151;DHT22;25866;52.420;10.640;2023-05-16T05:17:59;11.00;99.90
40151;DHT22;25866;52.420;10.640;2023-05-16T05:20:25;11.00;99.90
40151;DHT22;25866;52.420;10.640;2023-05-16T05:22:51;11.00;99.90
40151;DHT22;25866;52.420;10.640;2023-05-16T05:25:16;11.10;99.90
40151;DHT22;25866;52.420;10.640;2023-05-16T05:27:42;11.10;99.90
40151;DHT22;25866;52.420;10.640;2023-05-16T05:30:08;11.10;99.90
40151;DHT22;25866;52.420;10.640;2023-05-16T05:32:34;11.30;99.90
40151;DHT22;25866;52.420;10.640;2023-05-16T05:35:00;11.30;99.90
40151;DHT22;25866;52.420;10.640;2023-05-16T05:37:26;11.30;99.90
40151;DHT22;25866;52.420;10.640;2023-05-16T05:39:51;11.30;99.90
40151;DHT22;25866;52.420;10.640;2023-05-16T05:42:17;11.30;99.90
40151;DHT22;25866;52.420;10.640;2023-05-16T05:44:43;11.30;99.90
40151;DHT22;25866;52.420;10.640;2023-05-16T05:47:09;11.40;99.90
40151;DHT22;25866;52.420;10.640;2023-05-16T05:49:34;11.50;99.90
40151;DHT22;25866;52.420;10.640;2023-05-16T05:52:01;11.50;99.90
40151;DHT22;25866;52.420;10.640;2023-05-16T05:54:26;11.60;99.90
40151;DHT22;25866;52.420;10.640;2023-05-16T05:57:03;11.70;99.90
40151;DHT22;25866;52.420;10.640;2023-05-16T05:59:29;11.70;99.90
40151;DHT22;25866;52.420;10.640;2023-05-16T06:01:54;11.60;99.90
40151;DHT22;25866;52.420;10.640;2023-05-16T06:04:20;11.60;99.90
40151;DHT22;25866;52.420;10.640;2023-05-16T06:06:47;11.60;99.90
40151;DHT22;25866;52.420;10.640;2023-05-16T06:09:13;11.50;99.90
40151;DHT22;25866;52.420;10.640;2023-05-16T06:11:40;11.30;99.90
40151;DHT22;25866;52.420;10.640;2023-05-16T06:14:06;11.10;99.90
40151;DHT22;25866;52.420;10.640;2023-05-16T06:16:32;11.10;99.90
40151;DHT22;25866;52.420;10.640;2023-05-16T06:19:10;11.00;99.90
40151;DHT22;25866;52.420;10.640;2023-05-16T06:21:40;10.90;99.90
40151;DHT22;25866;52.420;10.640;2023-05-16T06:24:06;10.90;99.90
40151;DHT22;25866;52.420;10.640;2023-05-16T06:26:32;10.90;99.90
40151;DHT22;25866;52.420;10.640;2023-05-16T06:28:59;11.00;99.90
40151;DHT22;25866;52.420;10.640;2023-05-16T06:31:25;11.00;99.90
40151;DHT22;25866;52.420;10.640;2023-05-16T06:33:51;11.00;99.90
40151;DHT22;25866;52.420;10.640;2023-05-16T06:36:16;11.00;99.90
40151;DHT22;25866;52.420;10.640;2023-05-16T06:38:42;11.10;99.90
40151;DHT22;25866;52.420;10.640;2023-05-16T06:41:08;11.00;99.90
40151;DHT22;25866;52.420;10.640;2023-05-16T06:43:33;11.00;99.90
40151;DHT22;25866;52.420;10.640;2023-05-16T06:45:59;10.90;99.90
40151;DHT22;25866;52.420;10.640;2023-05-16T06:48:32;10.80;99.90
40151;DHT22;25866;52.420;10.640;2023-05-16T06:50:58;10.70;99.90
40151;DHT22;25866;52.420;10.640;2023-05-16T06:53:24;10.60;99.90
40151;DHT22;25866;52.420;10.640;2023-05-16T06:55:50;10.60;99.90
40151;DHT22;25866;52.420;10.640;2023-05-16T06:58:17;10.50;99.90
40151;DHT22;25866;52.420;10.640;2023-05-16T07:00:43;10.50;99.90
40151;DHT22;25866;52.420;10.640;2023-05-16T07:03:08;10.50;99.90
40151;DHT22;25866;52.420;10.640;2023-05-16T07:05:34;10.60;99.90
40151;DHT22;25866;52.420;10.640;2023-05-16T07:08:01;10.70;99.90
40151;DHT22;25866;52.420;10.640;2023-05-16T07:10:27;10.70;99.90
40151;DHT22;25866;52.420;10.640;2023-05-16T07:12:53;10.80;99.90
40151;DHT22;25866;52.420;10.640;2023-05-16T07:15:19;10.90;99.90
40151;DHT22;25866;52.420;10.640;2023-05-16T07:17:46;11.00;99.90
40151;DHT22;25866;52.420;10.640;2023-05-16T07:20:12;11.00;99.90
40151;DHT22;25866;52.420;10.640;2023-05-16T07:22:39;11.10;99.90
40151;DHT22;25866;52.420;10.640;2023-05-16T07:25:05;11.20;99.90
40151;DHT22;25866;52.420;10.640;2023-05-16T07:27:37;11.20;99.90
40151;DHT22;25866;52.420;10.640;2023-05-16T07:30:21;11.30;99.90
40151;DHT22;25866;52.420;10.640;2023-05-16T07:32:48;11.30;99.90
40151;DHT22;25866;52.420;10.640;2023-05-16T07:35:13;11.40;99.90
40151;DHT22;25866;52.420;10.640;2023-05-16T07:37:39;11.40;99.90
40151;DHT22;25866;52.420;10.640;2023-05-16T07:40:14;11.40;99.90
40151;DHT22;25866;52.420;10.640;2023-05-16T07:42:42;11.40;99.90
40151;DHT22;25866;52.420;10.640;2023-05-16T07:45:09;11.40;99.90
40151;DHT22;25866;52.420;10.640;2023-05-16T07:47:34;11.30;99.90
40151;DHT22;25866;52.420;10.640;2023-05-16T07:50:01;11.30;99.90
40151;DHT22;25866;52.420;10.640;2023-05-16T07:52:27;11.30;99.90
40151;DHT22;25866;52.420;10.640;2023-05-16T07:54:53;11.40;99.90
40151;DHT22;25866;52.420;10.640;2023-05-16T07:57:19;11.50;99.90
40151;DHT22;25866;52.420;10.640;2023-05-16T07:59:46;11.80;99.90
40151;DHT22;25866;52.420;10.640;2023-05-16T08:02:11;11.90;99.90
40151;DHT22;25866;52.420;10.640;2023-05-16T08:04:37;12.00;99.90
40151;DHT22;25866;52.420;10.640;2023-05-16T08:07:03;12.20;99.90
40151;DHT22;25866;52.420;10.640;2023-05-16T08:09:29;12.20;99.90
40151;DHT22;25866;52.420;10.640;2023-05-16T08:11:55;12.10;99.90
40151;DHT22;25866;52.420;10.640;2023-05-16T08:14:21;12.10;99.90
40151;DHT22;25866;52.420;10.640;2023-05-16T08:16:47;12.20;99.90
40151;DHT22;25866;52.420;10.640;2023-05-16T08:19:13;12.30;99.90
40151;DHT22;25866;52.420;10.640;2023-05-16T08:21:39;12.30;99.90
40151;DHT22;25866;52.420;10.640;2023-05-16T08:24:05;12.10;99.90
40151;DHT22;25866;52.420;10.640;2023-05-16T08:26:31;12.00;99.90
40151;DHT22;25866;52.420;10.640;2023-05-16T08:28:58;12.00;99.90
40151;DHT22;25866;52.420;10.640;2023-05-16T08:31:24;12.10;99.90
40151;DHT22;25866;52.420;10.640;2023-05-16T08:33:50;12.20;99.90
40151;DHT22;25866;52.420;10.640;2023-05-16T08:36:15;12.50;99.90
40151;DHT22;25866;52.420;10.640;2023-05-16T08:38:51;12.60;99.90
40151;DHT22;25866;52.420;10.640;2023-05-16T08:41:17;12.90;99.90
40151;DHT22;25866;52.420;10.640;2023-05-16T08:43:43;12.90;99.90
40151;DHT22;25866;52.420;10.640;2023-05-16T08:46:08;12.80;99.90
40151;DHT22;25866;52.420;10.640;2023-05-16T08:48:35;12.80;99.90
40151;DHT22;25866;52.420;10.640;2023-05-16T08:51:02;12.80;99.90
40151;DHT22;25866;52.420;10.640;2023-05-16T08:53:37;12.80;99.90
40151;DHT22;25866;52.420;10.640;2023-05-16T08:56:06;12.80;99.90
40151;DHT22;25866;52.420;10.640;2023-05-16T08:58:33;12.90;99.90
40151;DHT22;25866;52.420;10.640;2023-05-16T09:01:01;12.90;99.90
40151;DHT22;25866;52.420;10.640;2023-05-16T09:03:31;13.00;99.90
40151;DHT22;25866;52.420;10.640;2023-05-16T09:05:57;13.20;99.90
40151;DHT22;25866;52.420;10.640;2023-05-16T09:08:22;13.30;99.80
40151;DHT22;25866;52.420;10.640;2023-05-16T09:10:51;13.20;99.80
40151;DHT22;25866;52.420;10.640;2023-05-16T09:13:16;13.40;99.90
40151;DHT22;25866;52.420;10.640;2023-05-16T09:15:42;13.40;99.00
40151;DHT22;25866;52.420;10.640;2023-05-16T09:18:11;13.40;97.00
40151;DHT22;25866;52.420;10.640;2023-05-16T09:20:43;13.50;97.00
40151;DHT22;25866;52.420;10.640;2023-05-16T09:23:11;13.70;96.40
40151;DHT22;25866;52.420;10.640;2023-05-16T09:25:39;13.70;95.80
40151;DHT22;25866;52.420;10.640;2023-05-16T09:28:04;13.80;96.30
40151;DHT22;25866;52.420;10.640;2023-05-16T09:30:47;13.70;95.60
40151;DHT22;25866;52.420;10.640;2023-05-16T09:33:14;13.80;96.10
40151;DHT22;25866;52.420;10.640;2023-05-16T09:35:39;13.90;93.70
40151;DHT22;25866;52.420;10.640;2023-05-16T09:38:13;13.90;95.50
40151;DHT22;25866;52.420;10.640;2023-05-16T09:40:40;14.10;95.40
40151;DHT22;25866;52.420;10.640;2023-05-16T09:43:06;14.30;96.20
40151;DHT22;25866;52.420;10.640;2023-05-16T09:45:34;14.40;95.70
40151;DHT22;25866;52.420;10.640;2023-05-16T09:48:10;14.70;95.70
40151;DHT22;25866;52.420;10.640;2023-05-16T09:50:39;14.80;94.40
40151;DHT22;25866;52.420;10.640;2023-05-16T09:53:07;14.90;96.30
40151;DHT22;25866;52.420;10.640;2023-05-16T09:55:33;14.90;93.40
40151;DHT22;25866;52.420;10.640;2023-05-16T09:57:59;14.70;94.10
40151;DHT22;25866;52.420;10.640;2023-05-16T10:00:32;14.20;92.70
40151;DHT22;25866;52.420;10.640;2023-05-16T10:03:00;14.00;92.80
40151;DHT22;25866;52.420;10.640;2023-05-16T10:05:27;14.10;92.80
40151;DHT22;25866;52.420;10.640;2023-05-16T10:07:57;14.30;92.50
40151;DHT22;25866;52.420;10.640;2023-05-16T10:10:24;14.40;92.00
40151;DHT22;25866;52.420;10.640;2023-05-16T10:12:50;14.50;93.60
40151;DHT22;25866;52.420;10.640;2023-05-16T10:15:17;14.70;94.40
40151;DHT22;25866;52.420;10.640;2023-05-16T10:17:49;14.60;92.90
40151;DHT22;25866;52.420;10.640;2023-05-16T10:20:17;14.20;90.70
40151;DHT22;25866;52.420;10.640;2023-05-16T10:22:46;14.20;91.70
40151;DHT22;25866;52.420;10.640;2023-05-16T10:25:35;14.40;92.40
40151;DHT22;25866;52.420;10.640;2023-05-16T10:28:03;14.60;91.00
40151;DHT22;25866;52.420;10.640;2023-05-16T10:30:32;14.90;90.80
40151;DHT22;25866;52.420;10.640;2023-05-16T10:33:00;15.10;89.30
40151;DHT22;25866;52.420;10.640;2023-05-16T10:35:26;15.20;89.10
40151;DHT22;25866;52.420;10.640;2023-05-16T10:37:52;15.00;90.20
40151;DHT22;25866;52.420;10.640;2023-05-16T10:40:19;15.20;93.10
40151;DHT22;25866;52.420;10.640;2023-05-16T10:43:02;15.50;92.70
40151;DHT22;25866;52.420;10.640;2023-05-16T10:45:28;15.40;90.30
40151;DHT22;25866;52.420;10.640;2023-05-16T10:47:55;15.70;91.20
40151;DHT22;25866;52.420;10.640;2023-05-16T10:50:42;15.80;88.90
40151;DHT22;25866;52.420;10.640;2023-05-16T10:53:28;15.80;89.30
40151;DHT22;25866;52.420;10.640;2023-05-16T11:06:27;14.80;91.80
40151;DHT22;25866;52.420;10.640;2023-05-16T11:11:51;15.40;92.70
40151;DHT22;25866;52.420;10.640;2023-05-16T11:17:10;15.70;87.00
40151;DHT22;25866;52.420;10.640;2023-05-16T11:19:56;15.60;90.60
40151;DHT22;25866;52.420;10.640;2023-05-16T11:22:31;16.10;90.90
40151;DHT22;25866;52.420;10.640;2023-05-16T11:25:01;16.40;89.50
40151;DHT22;25866;52.420;10.640;2023-05-16T11:27:28;16.20;90.00
40151;DHT22;25866;52.420;10.640;2023-05-16T11:30:10;16.30;90.40
40151;DHT22;25866;52.420;10.640;2023-05-16T11:32:40;16.10;86.50
40151;DHT22;25866;52.420;10.640;2023-05-16T11:35:12;16.00;87.80
40151;DHT22;25866;52.420;10.640;2023-05-16T11:37:39;16.00;88.90
40151;DHT22;25866;52.420;10.640;2023-05-16T11:40:06;15.90;90.30
40151;DHT22;25866;52.420;10.640;2023-05-16T11:42:40;15.60;87.90
40151;DHT22;25866;52.420;10.640;2023-05-16T11:45:15;15.20;89.10
40151;DHT22;25866;52.420;10.640;2023-05-16T11:47:42;15.20;92.40
40151;DHT22;25866;52.420;10.640;2023-05-16T11:50:15;15.60;93.00
40151;DHT22;25866;52.420;10.640;2023-05-16T11:52:44;16.20;92.20
40151;DHT22;25866;52.420;10.640;2023-05-16T11:55:11;16.70;87.10
40151;DHT22;25866;52.420;10.640;2023-05-16T11:57:40;16.80;89.70
40151;DHT22;25866;52.420;10.640;2023-05-16T12:00:16;16.80;85.90
40151;DHT22;25866;52.420;10.640;2023-05-16T12:02:46;16.50;88.40
40151;DHT22;25866;52.420;10.640;2023-05-16T12:05:13;16.00;87.90
40151;DHT22;25866;52.420;10.640;2023-05-16T12:07:39;15.60;89.60
40151;DHT22;25866;52.420;10.640;2023-05-16T12:10:09;15.30;87.40
40151;DHT22;25866;52.420;10.640;2023-05-16T12:12:38;15.20;90.20
40151;DHT22;25866;52.420;10.640;2023-05-16T12:15:05;15.40;86.50
40151;DHT22;25866;52.420;10.640;2023-05-16T12:17:36;15.50;88.40
40151;DHT22;25866;52.420;10.640;2023-05-16T12:20:04;15.50;85.40
40151;DHT22;25866;52.420;10.640;2023-05-16T12:22:39;15.40;85.10
40151;DHT22;25866;52.420;10.640;2023-05-16T12:25:26;15.00;85.90
40151;DHT22;25866;52.420;10.640;2023-05-16T12:27:54;14.70;86.90
40151;DHT22;25866;52.420;10.640;2023-05-16T12:30:22;14.90;90.60
40151;DHT22;25866;52.420;10.640;2023-05-16T12:33:08;15.30;90.00
40151;DHT22;25866;52.420;10.640;2023-05-16T12:35:40;15.40;88.20
40151;DHT22;25866;52.420;10.640;2023-05-16T12:38:08;15.50;90.70
40151;DHT22;25866;52.420;10.640;2023-05-16T12:40:38;15.40;89.40
40151;DHT22;25866;52.420;10.640;2023-05-16T12:43:24;15.10;87.00
40151;DHT22;25866;52.420;10.640;2023-05-16T12:45:55;15.20;88.60
40151;DHT22;25866;52.420;10.640;2023-05-16T12:48:23;15.60;86.00
40151;DHT22;25866;52.420;10.640;2023-05-16T12:50:48;16.00;88.50
40151;DHT22;25866;52.420;10.640;2023-05-16T12:53:16;16.50;86.60
40151;DHT22;25866;52.420;10.640;2023-05-16T12:55:43;16.90;84.40
40151;DHT22;25866;52.420;10.640;2023-05-16T12:58:09;16.80;79.20
40151;DHT22;25866;52.420;10.640;2023-05-16T13:00:36;17.00;85.10
40151;DHT22;25866;52.420;10.640;2023-05-16T13:03:03;17.30;81.40
40151;DHT22;25866;52.420;10.640;2023-05-16T13:05:29;17.60;80.10
40151;DHT22;25866;52.420;10.640;2023-05-16T13:07:55;17.20;78.00
40151;DHT22;25866;52.420;10.640;2023-05-16T13:10:21;16.40;77.60
40151;DHT22;25866;52.420;10.640;2023-05-16T13:12:47;15.90;78.60
40151;DHT22;25866;52.420;10.640;2023-05-16T13:15:13;15.60;81.20
40151;DHT22;25866;52.420;10.640;2023-05-16T13:17:41;15.80;81.90
40151;DHT22;25866;52.420;10.640;2023-05-16T13:20:08;16.00;80.60
40151;DHT22;25866;52.420;10.640;2023-05-16T13:22:38;16.20;82.70
40151;DHT22;25866;52.420;10.640;2023-05-16T13:25:04;16.60;83.80
40151;DHT22;25866;52.420;10.640;2023-05-16T13:27:31;16.80;80.90
40151;DHT22;25866;52.420;10.640;2023-05-16T13:29:57;16.70;80.10
40151;DHT22;25866;52.420;10.640;2023-05-16T13:32:23;16.20;84.30
40151;DHT22;25866;52.420;10.640;2023-05-16T13:34:49;16.10;85.80
40151;DHT22;25866;52.420;10.640;2023-05-16T13:37:16;16.30;85.50
40151;DHT22;25866;52.420;10.640;2023-05-16T13:39:41;16.40;84.10
40151;DHT22;25866;52.420;10.640;2023-05-16T13:42:08;16.10;86.60
40151;DHT22;25866;52.420;10.640;2023-05-16T13:44:34;16.10;88.40
40151;DHT22;25866;52.420;10.640;2023-05-16T13:47:00;16.20;86.00
40151;DHT22;25866;52.420;10.640;2023-05-16T13:49:26;15.80;83.00
40151;DHT22;25866;52.420;10.640;2023-05-16T13:51:51;15.90;87.70
40151;DHT22;25866;52.420;10.640;2023-05-16T13:54:18;16.10;83.00
40151;DHT22;25866;52.420;10.640;2023-05-16T13:56:44;16.40;87.30
40151;DHT22;25866;52.420;10.640;2023-05-16T13:59:10;16.90;89.70
40151;DHT22;25866;52.420;10.640;2023-05-16T14:01:37;17.30;84.20
40151;DHT22;25866;52.420;10.640;2023-05-16T14:04:02;17.30;74.80
40151;DHT22;25866;52.420;10.640;2023-05-16T14:06:28;16.90;75.10
40151;DHT22;25866;52.420;10.640;2023-05-16T14:08:54;16.60;76.90
40151;DHT22;25866;52.420;10.640;2023-05-16T14:11:20;16.60;76.50
40151;DHT22;25866;52.420;10.640;2023-05-16T14:13:51;16.60;76.10
40151;DHT22;25866;52.420;10.640;2023-05-16T14:16:17;16.50;74.20
40151;DHT22;25866;52.420;10.640;2023-05-16T14:18:42;16.50;74.00
40151;DHT22;25866;52.420;10.640;2023-05-16T14:21:08;16.50;75.90
40151;DHT22;25866;52.420;10.640;2023-05-16T14:23:34;16.60;79.80
40151;DHT22;25866;52.420;10.640;2023-05-16T14:26:00;16.60;76.60
40151;DHT22;25866;52.420;10.640;2023-05-16T14:28:27;16.60;80.30
40151;DHT22;25866;52.420;10.640;2023-05-16T14:30:53;16.60;77.20
40151;DHT22;25866;52.420;10.640;2023-05-16T14:33:20;16.80;78.40
40151;DHT22;25866;52.420;10.640;2023-05-16T14:35:46;16.90;78.00
40151;DHT22;25866;52.420;10.640;2023-05-16T14:38:15;17.00;77.60
40151;DHT22;25866;52.420;10.640;2023-05-16T14:40:40;16.70;76.10
40151;DHT22;25866;52.420;10.640;2023-05-16T14:43:06;16.40;76.50
40151;DHT22;25866;52.420;10.640;2023-05-16T14:45:33;16.20;77.30
40151;DHT22;25866;52.420;10.640;2023-05-16T14:47:59;16.10;79.70
40151;DHT22;25866;52.420;10.640;2023-05-16T14:50:25;15.80;77.00
40151;DHT22;25866;52.420;10.640;2023-05-16T14:52:50;15.50;77.10
40151;DHT22;25866;52.420;10.640;2023-05-16T14:55:17;15.30;76.40
40151;DHT22;25866;52.420;10.640;2023-05-16T14:57:43;15.10;75.80
40151;DHT22;25866;52.420;10.640;2023-05-16T15:00:10;15.00;79.20
40151;DHT22;25866;52.420;10.640;2023-05-16T15:02:36;14.80;78.80
40151;DHT22;25866;52.420;10.640;2023-05-16T15:05:01;14.80;79.10
40151;DHT22;25866;52.420;10.640;2023-05-16T15:07:28;15.00;80.30
40151;DHT22;25866;52.420;10.640;2023-05-16T15:09:54;15.10;81.30
40151;DHT22;25866;52.420;10.640;2023-05-16T15:12:20;15.00;80.20
40151;DHT22;25866;52.420;10.640;2023-05-16T15:14:46;15.10;82.30
40151;DHT22;25866;52.420;10.640;2023-05-16T15:17:11;15.30;83.60
40151;DHT22;25866;52.420;10.640;2023-05-16T15:19:37;15.60;82.20
40151;DHT22;25866;52.420;10.640;2023-05-16T15:22:04;15.80;84.30
40151;DHT22;25866;52.420;10.640;2023-05-16T15:24:32;15.70;81.30
40151;DHT22;25866;52.420;10.640;2023-05-16T15:26:58;15.70;88.30
40151;DHT22;25866;52.420;10.640;2023-05-16T15:29:24;15.50;90.50
40151;DHT22;25866;52.420;10.640;2023-05-16T15:31:50;15.20;85.60
40151;DHT22;25866;52.420;10.640;2023-05-16T15:34:16;15.10;90.70
40151;DHT22;25866;52.420;10.640;2023-05-16T15:36:42;14.90;84.60
40151;DHT22;25866;52.420;10.640;2023-05-16T15:39:07;14.80;86.80
40151;DHT22;25866;52.420;10.640;2023-05-16T15:41:33;14.60;91.30
40151;DHT22;25866;52.420;10.640;2023-05-16T15:43:59;14.40;86.80
40151;DHT22;25866;52.420;10.640;2023-05-16T15:46:25;14.20;85.80
40151;DHT22;25866;52.420;10.640;2023-05-16T15:48:51;14.00;87.90